createdAt,value
2022-08-31T00:00:20.420Z,55.04
2022-08-31T00:03:05.654Z,55.08
2022-08-31T00:05:33.524Z,54.90
2022-08-31T00:08:01.415Z,55.02
2022-08-31T00:10:32.669Z,54.95
2022-08-31T00:13:07.034Z,54.79
2022-08-31T00:15:36.881Z,54.56
2022-08-31T00:18:05.845Z,54.96
2022-08-31T00:20:34.928Z,55.01
2022-08-31T00:23:03.709Z,55.14
2022-08-31T00:25:33.689Z,55.05
2022-08-31T00:28:01.686Z,55.13
2022-08-31T00:30:30.098Z,54.96
2022-08-31T00:33:01.168Z,55.06
2022-08-31T00:35:30.939Z,55.25
2022-08-31T00:38:01.583Z,55.40
2022-08-31T00:40:30.004Z,55.67
2022-08-31T00:43:00.420Z,55.99
2022-08-31T00:45:29.269Z,56.21
2022-08-31T00:47:57.198Z,56.22
2022-08-31T00:50:26.975Z,56.38
2022-08-31T00:52:59.057Z,56.59
2022-08-31T00:55:32.140Z,57.08
2022-08-31T00:58:04.713Z,57.18
2022-08-31T01:00:33.601Z,57.34
2022-08-31T01:03:03.311Z,57.46
2022-08-31T01:05:33.595Z,57.70
2022-08-31T01:08:03.299Z,57.73
2022-08-31T01:10:35.777Z,57.77
2022-08-31T01:13:04.603Z,57.79
2022-08-31T01:15:33.273Z,58.06
2022-08-31T01:18:03.386Z,58.29
2022-08-31T01:20:37.481Z,58.39
2022-08-31T01:23:14.100Z,58.48
2022-08-31T01:25:45.690Z,58.98
2022-08-31T01:28:14.388Z,59.49
2022-08-31T01:30:43.503Z,59.67
2022-08-31T01:33:13.348Z,59.59
2022-08-31T01:35:45.899Z,59.55
2022-08-31T01:38:15.475Z,59.25
2022-08-31T01:40:50.392Z,59.46
2022-08-31T01:43:18.901Z,59.66
2022-08-31T01:45:47.044Z,59.54
2022-08-31T01:48:15.682Z,59.54
2022-08-31T01:50:44.026Z,59.69
2022-08-31T01:53:12.003Z,59.37
2022-08-31T01:55:41.962Z,59.03
2022-08-31T01:58:10.455Z,58.90
2022-08-31T02:00:53.455Z,58.78
2022-08-31T02:03:21.727Z,58.28
2022-08-31T02:05:49.640Z,58.00
2022-08-31T02:08:17.598Z,57.79
2022-08-31T02:10:47.596Z,57.86
2022-08-31T02:13:15.899Z,57.73
2022-08-31T02:15:44.044Z,57.72
2022-08-31T02:18:12.257Z,57.83
2022-08-31T02:20:40.453Z,57.84
2022-08-31T02:23:08.553Z,57.65
2022-08-31T02:25:37.233Z,57.98
2022-08-31T02:28:06.900Z,57.99
2022-08-31T02:30:35.780Z,57.79
2022-08-31T02:33:03.919Z,58.12
2022-08-31T02:35:32.153Z,58.09
2022-08-31T02:38:01.050Z,57.97
2022-08-31T02:40:29.110Z,58.22
2022-08-31T02:42:57.319Z,58.36
2022-08-31T02:45:28.880Z,58.62
2022-08-31T02:48:04.246Z,58.94
2022-08-31T02:50:40.499Z,59.16
2022-08-31T02:53:08.615Z,59.30
2022-08-31T02:55:37.050Z,59.62
2022-08-31T02:58:05.917Z,59.75
2022-08-31T03:00:35.409Z,60.08
2022-08-31T03:03:04.281Z,60.05
2022-08-31T03:05:32.633Z,60.04
2022-08-31T03:08:00.510Z,60.11
2022-08-31T03:10:28.952Z,60.20
2022-08-31T03:12:57.759Z,60.21
2022-08-31T03:15:27.356Z,60.53
2022-08-31T03:17:57.108Z,60.88
2022-08-31T03:20:26.933Z,60.97
2022-08-31T03:22:55.182Z,61.13
2022-08-31T03:25:24.067Z,61.02
2022-08-31T03:27:52.021Z,61.16
2022-08-31T03:30:22.561Z,61.13
2022-08-31T03:33:03.895Z,61.27
2022-08-31T03:35:34.114Z,61.35
2022-08-31T03:38:03.324Z,61.40
2022-08-31T03:40:32.310Z,61.47
2022-08-31T03:43:00.573Z,61.82
2022-08-31T03:45:32.001Z,62.14
2022-08-31T03:48:00.348Z,62.07
2022-08-31T03:50:30.254Z,62.18
2022-08-31T03:53:10.749Z,61.72
2022-08-31T03:55:42.627Z,62.32
2022-08-31T03:58:12.753Z,62.16
2022-08-31T04:00:44.362Z,61.73
2022-08-31T04:03:27.225Z,61.29
2022-08-31T04:06:25.627Z,60.96
2022-08-31T04:09:13.152Z,60.79
2022-08-31T04:12:01.051Z,61.37
2022-08-31T04:15:04.444Z,61.82
2022-08-31T04:17:41.073Z,62.33
2022-08-31T04:20:29.658Z,62.30
2022-08-31T04:22:59.472Z,62.06
2022-08-31T04:25:38.108Z,62.43
2022-08-31T04:28:09.088Z,62.68
2022-08-31T04:30:39.832Z,62.81
2022-08-31T04:33:08.272Z,63.30
2022-08-31T04:35:36.484Z,63.57
2022-08-31T04:38:05.710Z,63.68
2022-08-31T04:40:33.624Z,63.83
2022-08-31T04:43:01.721Z,64.31
2022-08-31T04:45:29.665Z,64.41
2022-08-31T04:47:57.680Z,64.44
2022-08-31T04:50:25.602Z,64.51
2022-08-31T04:53:09.068Z,64.90
2022-08-31T04:55:40.948Z,64.87
2022-08-31T04:58:10.063Z,64.72
2022-08-31T05:00:38.253Z,64.62
2022-08-31T05:03:24.763Z,64.29
2022-08-31T05:05:56.876Z,64.29
2022-08-31T05:08:26.260Z,64.04
2022-08-31T05:10:54.566Z,63.88
2022-08-31T05:13:22.502Z,64.40
2022-08-31T05:15:50.786Z,65.16
2022-08-31T05:18:25.639Z,65.46
2022-08-31T05:20:57.458Z,65.56
2022-08-31T05:23:26.837Z,65.54
2022-08-31T05:25:54.765Z,65.27
2022-08-31T05:28:23.533Z,65.18
2022-08-31T05:30:51.729Z,65.42
2022-08-31T05:33:40.483Z,65.50
2022-08-31T05:36:09.289Z,65.62
2022-08-31T05:38:41.936Z,65.33
2022-08-31T05:41:11.436Z,65.31
2022-08-31T05:43:40.568Z,65.10
2022-08-31T05:46:10.829Z,65.16
2022-08-31T05:48:40.652Z,65.03
2022-08-31T05:51:13.739Z,65.02
2022-08-31T05:53:45.072Z,64.84
2022-08-31T05:56:16.278Z,64.11
2022-08-31T05:58:49.568Z,63.43
2022-08-31T06:01:20.128Z,63.26
2022-08-31T06:04:11.617Z,62.94
2022-08-31T06:06:39.858Z,62.66
2022-08-31T06:09:09.649Z,62.39
2022-08-31T06:11:38.288Z,62.54
2022-08-31T06:14:07.000Z,62.31
2022-08-31T06:16:36.388Z,62.17
2022-08-31T06:19:07.060Z,62.08
2022-08-31T06:21:49.788Z,62.06
2022-08-31T06:24:23.468Z,61.97
2022-08-31T06:26:58.415Z,61.98
2022-08-31T06:29:33.280Z,62.19
2022-08-31T06:32:07.961Z,62.12
2022-08-31T06:34:37.481Z,62.28
2022-08-31T06:37:10.916Z,61.90
2022-08-31T06:40:08.152Z,62.06
2022-08-31T06:42:54.867Z,62.19
2022-08-31T06:45:48.902Z,62.24
2022-08-31T06:48:36.057Z,62.38
2022-08-31T06:51:04.941Z,62.22
2022-08-31T06:53:34.255Z,62.14
2022-08-31T06:56:30.076Z,61.94
2022-08-31T06:59:16.589Z,61.57
2022-08-31T07:01:57.786Z,61.32
2022-08-31T07:04:38.495Z,61.10
2022-08-31T07:07:08.922Z,60.69
2022-08-31T07:09:39.582Z,60.24
2022-08-31T07:12:09.772Z,59.99
2022-08-31T07:14:37.692Z,59.69
2022-08-31T07:17:08.199Z,59.40
2022-08-31T07:19:36.088Z,59.28
2022-08-31T07:22:09.147Z,59.16
2022-08-31T07:24:41.434Z,59.11
2022-08-31T07:27:18.264Z,58.79
2022-08-31T07:30:05.945Z,58.73
2022-08-31T07:32:35.581Z,58.48
2022-08-31T07:35:03.702Z,58.73
2022-08-31T07:37:49.877Z,58.76
2022-08-31T07:40:38.369Z,58.75
2022-08-31T07:43:11.860Z,58.68
2022-08-31T07:45:42.088Z,58.76
2022-08-31T07:48:13.220Z,58.93
2022-08-31T07:50:57.315Z,59.30
2022-08-31T07:53:47.384Z,59.82
2022-08-31T07:56:26.316Z,59.75
2022-08-31T07:59:12.331Z,60.04
2022-08-31T08:01:43.202Z,59.80
2022-08-31T08:04:21.794Z,59.69
2022-08-31T08:07:18.745Z,59.79
2022-08-31T08:10:21.281Z,59.49
2022-08-31T08:13:05.767Z,59.16
2022-08-31T08:15:56.184Z,58.67
2022-08-31T08:18:51.570Z,58.39
2022-08-31T08:21:24.622Z,58.38
2022-08-31T08:23:52.877Z,58.28
2022-08-31T08:26:44.118Z,58.38
2022-08-31T08:29:47.178Z,58.20
2022-08-31T08:32:23.676Z,57.88
2022-08-31T08:34:51.600Z,57.60
2022-08-31T08:37:35.607Z,57.31
2022-08-31T08:40:14.629Z,57.29
2022-08-31T08:42:44.147Z,57.27
2022-08-31T08:45:12.965Z,57.11
2022-08-31T08:47:45.126Z,57.20
2022-08-31T08:50:13.195Z,56.63
2022-08-31T08:52:44.797Z,56.44
2022-08-31T08:55:16.157Z,56.61
2022-08-31T08:57:47.688Z,56.06
2022-08-31T09:00:19.509Z,55.82
2022-08-31T09:03:01.044Z,55.59
2022-08-31T09:06:07.150Z,55.25
2022-08-31T09:09:09.211Z,54.54
2022-08-31T09:11:54.958Z,54.76
2022-08-31T09:14:47.678Z,54.50
2022-08-31T09:17:32.833Z,53.63
2022-08-31T09:20:04.073Z,52.98
2022-08-31T09:22:36.126Z,52.33
2022-08-31T09:25:05.092Z,52.30
2022-08-31T09:27:58.048Z,51.68
2022-08-31T09:30:41.663Z,51.90
2022-08-31T09:33:18.591Z,51.75
2022-08-31T09:35:56.565Z,51.63
2022-08-31T09:38:29.548Z,51.60
2022-08-31T09:40:58.016Z,51.86
2022-08-31T09:43:35.039Z,51.57
2022-08-31T09:46:07.863Z,51.39
2022-08-31T09:48:43.343Z,51.54
2022-08-31T09:51:22.997Z,50.67
2022-08-31T09:54:10.593Z,50.70
2022-08-31T09:56:56.023Z,50.88
2022-08-31T09:59:36.364Z,50.28
2022-08-31T10:02:09.208Z,50.02
2022-08-31T10:04:47.983Z,49.48
2022-08-31T10:07:29.697Z,49.13
2022-08-31T10:10:00.856Z,48.49
2022-08-31T10:12:38.504Z,48.49
2022-08-31T10:15:15.576Z,48.14
2022-08-31T10:17:49.085Z,48.14
2022-08-31T10:20:23.773Z,48.38
2022-08-31T10:22:57.775Z,47.90
2022-08-31T10:25:31.112Z,47.60
2022-08-31T10:28:06.323Z,47.38
2022-08-31T10:30:43.772Z,47.95
2022-08-31T10:33:19.174Z,46.97
2022-08-31T10:35:54.723Z,47.00
2022-08-31T10:38:32.229Z,47.42
2022-08-31T10:41:10.794Z,48.03
2022-08-31T10:43:46.064Z,47.68
2022-08-31T10:46:15.482Z,47.44
2022-08-31T10:48:53.160Z,47.79
2022-08-31T10:51:29.465Z,46.94
2022-08-31T10:54:07.888Z,46.68
2022-08-31T10:56:44.129Z,46.11
2022-08-31T10:59:23.392Z,45.98
2022-08-31T11:01:59.198Z,45.03
2022-08-31T11:04:49.706Z,44.34
2022-08-31T11:07:32.518Z,43.90
2022-08-31T11:10:13.210Z,43.58
2022-08-31T11:12:45.425Z,43.41
2022-08-31T11:15:50.049Z,42.69
2022-08-31T11:18:39.952Z,42.55
2022-08-31T11:21:45.170Z,42.28
2022-08-31T11:24:33.687Z,42.51
2022-08-31T11:27:11.887Z,41.19
2022-08-31T11:29:43.848Z,40.86
2022-08-31T11:32:21.084Z,40.60
2022-08-31T11:34:53.426Z,41.11
2022-08-31T11:37:50.950Z,42.00
2022-08-31T11:41:00.609Z,42.24
2022-08-31T11:43:48.991Z,43.00
2022-08-31T11:46:50.592Z,43.16
2022-08-31T11:49:54.232Z,43.19
2022-08-31T11:52:48.102Z,43.52
2022-08-31T11:55:28.307Z,43.88
2022-08-31T11:58:23.057Z,43.98
2022-08-31T12:00:59.231Z,43.96
2022-08-31T12:03:50.389Z,43.93
2022-08-31T12:07:07.272Z,43.48
2022-08-31T12:10:14.932Z,43.38
2022-08-31T12:13:18.712Z,43.19
2022-08-31T12:16:15.152Z,42.70
2022-08-31T12:18:58.670Z,42.56
2022-08-31T12:21:52.828Z,41.14
2022-08-31T12:24:34.174Z,41.31
2022-08-31T12:27:18.428Z,41.52
2022-08-31T12:29:46.524Z,41.34
2022-08-31T12:32:36.094Z,41.25
2022-08-31T12:35:16.589Z,41.31
2022-08-31T12:37:44.784Z,40.65
2022-08-31T12:40:18.938Z,40.60
2022-08-31T12:43:10.111Z,41.19
2022-08-31T12:46:08.752Z,42.24
2022-08-31T12:48:57.168Z,42.81
2022-08-31T12:51:40.995Z,42.49
2022-08-31T12:54:21.143Z,42.01
2022-08-31T12:56:55.443Z,41.81
2022-08-31T12:59:59.398Z,41.55
2022-08-31T13:02:25.365Z,40.50
2022-08-31T13:04:54.721Z,39.70
2022-08-31T13:07:24.903Z,39.20
2022-08-31T13:10:06.339Z,39.50
2022-08-31T13:12:34.375Z,39.28
2022-08-31T13:15:02.325Z,39.63
2022-08-31T13:17:35.457Z,39.37
2022-08-31T13:20:06.918Z,38.13
2022-08-31T13:22:39.464Z,37.36
2022-08-31T13:25:16.412Z,37.59
2022-08-31T13:27:50.201Z,36.33
2022-08-31T13:30:21.335Z,36.40
2022-08-31T13:32:51.181Z,35.93
2022-08-31T13:35:24.680Z,35.90
2022-08-31T13:38:03.995Z,36.57
2022-08-31T13:40:37.083Z,36.23
2022-08-31T13:43:07.879Z,35.46
2022-08-31T13:45:43.197Z,35.43
2022-08-31T13:48:15.134Z,35.03
2022-08-31T13:50:53.117Z,34.76
2022-08-31T13:53:37.999Z,34.83
2022-08-31T13:56:52.352Z,34.70
2022-08-31T13:59:28.821Z,34.58
2022-08-31T14:01:58.789Z,34.53
2022-08-31T14:04:48.589Z,34.34
2022-08-31T14:07:23.950Z,33.91
2022-08-31T14:09:55.098Z,33.41
2022-08-31T14:12:36.275Z,33.92
2022-08-31T14:15:18.158Z,33.87
2022-08-31T14:21:10.019Z,34.48
2022-08-31T14:23:35.990Z,34.70
2022-08-31T14:26:07.490Z,35.12
2022-08-31T14:28:40.633Z,35.04
2022-08-31T14:31:21.786Z,35.13
2022-08-31T14:33:56.024Z,35.75
2022-08-31T14:36:26.185Z,36.23
2022-08-31T14:38:58.246Z,36.44
2022-08-31T14:41:31.013Z,36.27
2022-08-31T14:44:06.833Z,36.43
2022-08-31T14:46:38.060Z,36.92
2022-08-31T14:49:07.185Z,36.93
2022-08-31T14:51:39.081Z,36.67
2022-08-31T14:54:09.205Z,37.08
2022-08-31T14:56:45.369Z,36.84
2022-08-31T14:59:16.244Z,36.43
2022-08-31T15:01:45.551Z,36.47
2022-08-31T15:04:14.897Z,36.01
2022-08-31T15:06:43.849Z,36.49
2022-08-31T15:09:14.602Z,37.06
2022-08-31T15:11:45.187Z,37.31
2022-08-31T15:14:13.972Z,37.77
2022-08-31T15:16:43.515Z,37.60
2022-08-31T15:19:13.504Z,37.64
2022-08-31T15:21:51.801Z,37.23
2022-08-31T15:24:24.389Z,37.20
2022-08-31T15:26:54.553Z,36.88
2022-08-31T15:29:24.973Z,37.17
2022-08-31T15:31:55.279Z,36.87
2022-08-31T15:34:25.018Z,36.88
2022-08-31T15:36:57.490Z,37.14
2022-08-31T15:39:28.292Z,37.48
2022-08-31T15:41:57.545Z,37.99
2022-08-31T15:44:25.740Z,37.83
2022-08-31T15:47:11.625Z,38.88
2022-08-31T15:49:40.200Z,39.82
2022-08-31T15:52:10.660Z,40.25
2022-08-31T15:54:41.335Z,40.58
2022-08-31T15:57:12.144Z,41.28
2022-08-31T15:59:43.533Z,41.86
2022-08-31T16:02:14.511Z,41.85
2022-08-31T16:04:43.400Z,42.20
2022-08-31T16:07:12.369Z,42.70
2022-08-31T16:09:44.646Z,42.90
2022-08-31T16:12:13.751Z,43.12
2022-08-31T16:14:45.075Z,43.20
2022-08-31T16:17:14.572Z,43.35
2022-08-31T16:19:43.011Z,43.63
2022-08-31T16:22:11.240Z,43.78
2022-08-31T16:24:39.652Z,43.46
2022-08-31T16:27:12.479Z,43.98
2022-08-31T16:29:45.655Z,44.23
2022-08-31T16:32:15.858Z,44.21
2022-08-31T16:34:44.156Z,44.25
2022-08-31T16:37:12.521Z,44.16
2022-08-31T16:39:43.356Z,44.36
2022-08-31T16:42:13.710Z,44.42
2022-08-31T16:44:45.858Z,44.42
2022-08-31T16:47:15.021Z,44.52
2022-08-31T16:49:43.429Z,44.46
2022-08-31T16:52:18.112Z,44.65
2022-08-31T16:54:48.318Z,44.88
2022-08-31T16:57:25.452Z,44.74
2022-08-31T16:59:53.788Z,44.77
2022-08-31T17:02:23.112Z,44.83
2022-08-31T17:04:53.305Z,44.94
2022-08-31T17:07:23.071Z,45.10
2022-08-31T17:09:52.449Z,45.05
2022-08-31T17:12:29.577Z,45.20
2022-08-31T17:14:58.401Z,45.58
2022-08-31T17:17:27.789Z,45.55
2022-08-31T17:19:58.529Z,45.59
2022-08-31T17:22:32.428Z,45.80
2022-08-31T17:25:04.387Z,46.11
2022-08-31T17:27:35.868Z,46.04
2022-08-31T17:30:07.870Z,46.35
2022-08-31T17:32:42.622Z,46.41
2022-08-31T17:35:19.421Z,46.61
2022-08-31T17:37:47.810Z,47.01
2022-08-31T17:40:16.790Z,47.04
2022-08-31T17:42:46.634Z,47.53
2022-08-31T17:45:15.541Z,47.66
2022-08-31T17:47:43.591Z,47.68
2022-08-31T17:50:13.874Z,48.08
2022-08-31T17:52:41.939Z,48.16
2022-08-31T17:55:10.086Z,48.23
2022-08-31T17:57:38.172Z,48.25
2022-08-31T18:00:08.905Z,48.59
2022-08-31T18:02:37.821Z,48.88
2022-08-31T18:05:09.647Z,48.99
2022-08-31T18:07:41.140Z,49.09
2022-08-31T18:10:10.750Z,49.09
2022-08-31T18:12:41.134Z,49.42
2022-08-31T18:15:12.860Z,49.33
2022-08-31T18:17:40.993Z,49.50
2022-08-31T18:20:10.656Z,49.46
2022-08-31T18:22:39.848Z,49.53
2022-08-31T18:25:08.253Z,49.77
2022-08-31T18:27:36.200Z,49.59
2022-08-31T18:30:04.584Z,49.73
2022-08-31T18:32:36.134Z,49.85
2022-08-31T18:35:05.890Z,50.00
2022-08-31T18:37:34.818Z,49.32
2022-08-31T18:40:20.494Z,49.36
2022-08-31T18:43:05.877Z,49.39
2022-08-31T18:45:39.020Z,49.28
2022-08-31T18:48:25.752Z,49.57
2022-08-31T18:50:58.912Z,49.35
2022-08-31T18:53:29.173Z,49.18
2022-08-31T18:55:59.694Z,49.26
2022-08-31T18:58:28.720Z,48.92
2022-08-31T19:00:58.729Z,48.84
2022-08-31T19:03:29.061Z,49.03
2022-08-31T19:05:57.724Z,49.19
2022-08-31T19:08:26.463Z,49.02
2022-08-31T19:10:57.954Z,49.21
2022-08-31T19:13:31.563Z,49.12
2022-08-31T19:16:03.543Z,48.98
2022-08-31T19:18:35.594Z,48.80
2022-08-31T19:21:15.269Z,48.57
2022-08-31T19:23:43.587Z,48.39
2022-08-31T19:26:11.557Z,49.05
2022-08-31T19:28:39.510Z,48.72
2022-08-31T19:31:11.698Z,48.67
2022-08-31T19:33:42.085Z,48.86
2022-08-31T19:36:11.449Z,49.14
2022-08-31T19:38:40.484Z,48.96
2022-08-31T19:41:15.685Z,48.97
2022-08-31T19:43:49.065Z,48.85
2022-08-31T19:46:22.004Z,48.67
2022-08-31T19:48:51.769Z,48.63
2022-08-31T19:51:22.587Z,48.81
2022-08-31T19:53:51.671Z,49.03
2022-08-31T19:56:22.011Z,49.06
2022-08-31T19:58:52.788Z,49.04
2022-08-31T20:01:25.346Z,48.85
2022-08-31T20:03:57.057Z,48.60
2022-08-31T20:06:26.261Z,48.90
2022-08-31T20:08:55.364Z,48.88
2022-08-31T20:11:26.407Z,48.88
2022-08-31T20:13:55.690Z,48.79
2022-08-31T20:16:28.543Z,49.01
2022-08-31T20:19:04.142Z,49.55
2022-08-31T20:21:34.824Z,49.43
2022-08-31T20:24:06.770Z,49.70
2022-08-31T20:26:47.429Z,49.68
2022-08-31T20:29:21.104Z,49.77
2022-08-31T20:31:51.738Z,49.33
2022-08-31T20:34:23.208Z,49.63
2022-08-31T20:36:59.899Z,49.91
2022-08-31T20:39:31.979Z,49.87
2022-08-31T20:42:01.499Z,49.87
2022-08-31T20:44:31.328Z,49.83
2022-08-31T20:47:18.548Z,49.98
2022-08-31T20:49:53.649Z,49.85
2022-08-31T20:52:23.110Z,49.85
2022-08-31T20:55:01.255Z,49.97
2022-08-31T20:57:30.701Z,49.94
2022-08-31T21:00:00.343Z,50.27
2022-08-31T21:02:29.281Z,50.19
2022-08-31T21:05:10.399Z,50.01
2022-08-31T21:07:46.962Z,49.87
2022-08-31T21:10:14.908Z,50.09
2022-08-31T21:12:42.836Z,49.88
2022-08-31T21:15:11.442Z,49.92
2022-08-31T21:17:40.873Z,49.76
2022-08-31T21:20:12.040Z,49.51
2022-08-31T21:22:40.020Z,49.67
2022-08-31T21:25:12.630Z,49.76
2022-08-31T21:27:41.156Z,49.78
2022-08-31T21:30:11.798Z,49.87
2022-08-31T21:32:40.569Z,49.69
2022-08-31T21:35:11.373Z,49.79
2022-08-31T21:37:40.281Z,49.83
2022-08-31T21:40:10.347Z,50.30
2022-08-31T21:42:38.380Z,50.38
2022-08-31T21:45:07.338Z,50.56
2022-08-31T21:47:35.319Z,50.48
2022-08-31T21:50:03.449Z,50.41
2022-08-31T21:52:32.801Z,50.58
2022-08-31T21:55:05.454Z,50.25
2022-08-31T21:57:33.498Z,50.45
2022-08-31T22:00:01.826Z,50.52
2022-08-31T22:02:29.825Z,50.60
2022-08-31T22:04:57.853Z,50.51
2022-08-31T22:07:25.850Z,50.66
2022-08-31T22:09:56.671Z,50.59
2022-08-31T22:12:25.634Z,50.63
2022-08-31T22:14:53.520Z,50.62
2022-08-31T22:17:29.497Z,50.96
2022-08-31T22:20:17.623Z,50.96
2022-08-31T22:22:46.952Z,50.93
2022-08-31T22:25:16.383Z,50.92
2022-08-31T22:27:46.785Z,51.16
2022-08-31T22:30:15.842Z,50.92
2022-08-31T22:32:47.117Z,51.21
2022-08-31T22:35:15.726Z,51.25
2022-08-31T22:37:43.907Z,51.15
2022-08-31T22:40:19.903Z,51.14
2022-08-31T22:42:49.970Z,51.11
2022-08-31T22:45:18.461Z,51.15
2022-08-31T22:47:50.082Z,51.36
2022-08-31T22:50:18.642Z,51.54
2022-08-31T22:52:46.714Z,51.43
2022-08-31T22:55:14.749Z,51.49
2022-08-31T22:57:42.629Z,51.57
2022-08-31T23:00:13.154Z,51.76
2022-08-31T23:02:44.840Z,51.68
2022-08-31T23:05:15.101Z,51.83
2022-08-31T23:07:43.199Z,51.79
2022-08-31T23:10:18.242Z,51.78
2022-08-31T23:12:48.221Z,52.08
2022-08-31T23:15:18.219Z,52.10
2022-08-31T23:17:51.939Z,51.89
2022-08-31T23:20:24.243Z,51.93
2022-08-31T23:22:53.391Z,52.13
2022-08-31T23:25:24.464Z,52.22
2022-08-31T23:27:53.303Z,52.24
2022-08-31T23:30:25.546Z,52.25
2022-08-31T23:32:53.850Z,52.12
2022-08-31T23:35:24.478Z,52.56
2022-08-31T23:37:54.295Z,52.44
2022-08-31T23:40:22.312Z,52.49
2022-08-31T23:42:50.526Z,52.52
2022-08-31T23:45:18.583Z,52.43
2022-08-31T23:47:47.917Z,52.48
2022-08-31T23:50:16.461Z,52.37
2022-08-31T23:52:45.811Z,52.55
2022-08-31T23:55:13.797Z,52.47
2022-08-31T23:57:41.838Z,52.69
